Cape Jaffa, Australia
Current Conditions -  °F | °C
As of 5:00 AM on Monday 24 Nov 2014 (Local Time) from YMTG Reporting Station
Broken Clouds Broken Clouds  
Wind Chill: 54°   Ceiling: 11000
Heat Index: 54°   Visibility: 6mi
Dew Point: 52°   Wind: 2mph
Humidity: 94%   Direction: 160°SSE
Pressure: 29.77"   Gusts: NA
Location:  36.95°S, 139.68°E
Report Text: YMTG 231900Z AUTO 16002KT 9999 // BKN110 12/11 Q1008
Loading
Personal Weather Stations






























Interactive Weather Map New forecast layout! Learn more

10-Day Weather Forecast

Advertisements
Track Severe Weather on mobile